sensor_id;sensor_type;location;lat;lon;timestamp;pressure;altitude;pressure_sealevel;temperature;humidity
37170;BME280;23062;13.952;100.608;2023-04-28T00:04:19;1010.54;;;31.39;62.95
37170;BME280;23062;13.952;100.608;2023-04-28T00:08:46;1010.73;;;31.40;63.29
37170;BME280;23062;13.952;100.608;2023-04-28T00:13:12;1010.79;;;31.43;63.30
37170;BME280;23062;13.952;100.608;2023-04-28T00:17:38;1010.82;;;31.51;63.03
37170;BME280;23062;13.952;100.608;2023-04-28T00:22:04;1010.87;;;31.55;62.90
37170;BME280;23062;13.952;100.608;2023-04-28T00:26:38;1011.00;;;31.56;62.84
37170;BME280;23062;13.952;100.608;2023-04-28T00:31:11;1011.09;;;31.62;62.86
37170;BME280;23062;13.952;100.608;2023-04-28T00:35:37;1011.16;;;31.62;62.52
37170;BME280;23062;13.952;100.608;2023-04-28T00:40:04;1011.21;;;31.62;62.55
37170;BME280;23062;13.952;100.608;2023-04-28T00:44:33;1011.27;;;31.67;62.79
37170;BME280;23062;13.952;100.608;2023-04-28T00:49:00;1011.36;;;31.68;63.00
37170;BME280;23062;13.952;100.608;2023-04-28T00:53:26;1011.44;;;31.68;62.79
37170;BME280;23062;13.952;100.608;2023-04-28T00:57:54;1011.54;;;31.72;62.63
37170;BME280;23062;13.952;100.608;2023-04-28T01:02:21;1011.67;;;31.80;62.38
37170;BME280;23062;13.952;100.608;2023-04-28T01:06:51;1011.76;;;31.84;62.53
37170;BME280;23062;13.952;100.608;2023-04-28T01:11:18;1011.79;;;31.86;62.60
37170;BME280;23062;13.952;100.608;2023-04-28T01:15:48;1011.74;;;31.92;62.11
37170;BME280;23062;13.952;100.608;2023-04-28T01:20:15;1011.75;;;31.97;62.39
37170;BME280;23062;13.952;100.608;2023-04-28T01:24:42;1011.72;;;31.98;62.53
37170;BME280;23062;13.952;100.608;2023-04-28T01:29:09;1011.79;;;31.99;62.29
37170;BME280;23062;13.952;100.608;2023-04-28T01:33:34;1011.88;;;32.03;62.18
37170;BME280;23062;13.952;100.608;2023-04-28T01:38:00;1011.94;;;32.06;62.24
37170;BME280;23062;13.952;100.608;2023-04-28T01:42:26;1012.03;;;32.09;62.08
37170;BME280;23062;13.952;100.608;2023-04-28T01:46:57;1012.08;;;32.13;61.93
37170;BME280;23062;13.952;100.608;2023-04-28T01:51:21;1012.07;;;31.98;63.65
37170;BME280;23062;13.952;100.608;2023-04-28T01:55:47;1012.06;;;31.94;63.85
37170;BME280;23062;13.952;100.608;2023-04-28T02:00:13;1012.06;;;31.92;64.11
37170;BME280;23062;13.952;100.608;2023-04-28T02:04:39;1012.05;;;31.97;63.99
37170;BME280;23062;13.952;100.608;2023-04-28T02:09:05;1012.04;;;31.99;63.80
37170;BME280;23062;13.952;100.608;2023-04-28T02:13:31;1012.00;;;32.02;63.83
37170;BME280;23062;13.952;100.608;2023-04-28T02:18:03;1011.94;;;32.06;63.77
37170;BME280;23062;13.952;100.608;2023-04-28T02:22:26;1011.87;;;32.09;63.86
37170;BME280;23062;13.952;100.608;2023-04-28T02:26:53;1011.83;;;32.11;63.64
37170;BME280;23062;13.952;100.608;2023-04-28T02:31:21;1011.86;;;32.15;63.52
37170;BME280;23062;13.952;100.608;2023-04-28T02:35:47;1011.78;;;32.18;63.53
37170;BME280;23062;13.952;100.608;2023-04-28T02:40:14;1011.78;;;32.22;63.51
37170;BME280;23062;13.952;100.608;2023-04-28T02:44:43;1011.74;;;32.26;63.27
37170;BME280;23062;13.952;100.608;2023-04-28T02:49:09;1011.65;;;32.29;62.89
37170;BME280;23062;13.952;100.608;2023-04-28T02:53:35;1011.65;;;32.34;62.66
37170;BME280;23062;13.952;100.608;2023-04-28T02:58:06;1011.53;;;32.37;62.40
37170;BME280;23062;13.952;100.608;2023-04-28T03:02:36;1011.49;;;32.40;62.31
37170;BME280;23062;13.952;100.608;2023-04-28T03:07:02;1011.47;;;32.45;61.79
37170;BME280;23062;13.952;100.608;2023-04-28T03:11:30;1011.37;;;32.47;61.83
37170;BME280;23062;13.952;100.608;2023-04-28T03:15:56;1011.30;;;32.50;61.75
37170;BME280;23062;13.952;100.608;2023-04-28T03:20:24;1011.24;;;32.51;61.57
37170;BME280;23062;13.952;100.608;2023-04-28T03:24:52;1011.21;;;32.55;61.36
37170;BME280;23062;13.952;100.608;2023-04-28T03:29:21;1011.21;;;32.55;61.31
37170;BME280;23062;13.952;100.608;2023-04-28T03:33:51;1011.20;;;32.58;61.26
37170;BME280;23062;13.952;100.608;2023-04-28T03:38:18;1011.12;;;32.59;61.17
37170;BME280;23062;13.952;100.608;2023-04-28T03:42:45;1010.94;;;32.65;60.92
37170;BME280;23062;13.952;100.608;2023-04-28T03:47:11;1010.90;;;32.65;60.98
37170;BME280;23062;13.952;100.608;2023-04-28T03:51:38;1010.86;;;32.68;61.15
37170;BME280;23062;13.952;100.608;2023-04-28T03:56:04;1010.76;;;32.72;61.22
37170;BME280;23062;13.952;100.608;2023-04-28T04:00:30;1010.72;;;32.72;61.29
37170;BME280;23062;13.952;100.608;2023-04-28T04:05:05;1010.69;;;32.73;60.88
37170;BME280;23062;13.952;100.608;2023-04-28T04:09:33;1010.61;;;32.76;59.87
37170;BME280;23062;13.952;100.608;2023-04-28T04:14:06;1010.54;;;32.77;58.57
37170;BME280;23062;13.952;100.608;2023-04-28T04:18:35;1010.44;;;32.83;58.33
37170;BME280;23062;13.952;100.608;2023-04-28T04:23:01;1010.34;;;32.88;57.84
37170;BME280;23062;13.952;100.608;2023-04-28T04:27:28;1010.31;;;32.89;58.10
37170;BME280;23062;13.952;100.608;2023-04-28T04:31:56;1010.23;;;32.89;57.66
37170;BME280;23062;13.952;100.608;2023-04-28T04:36:22;1010.16;;;32.88;57.46
37170;BME280;23062;13.952;100.608;2023-04-28T04:40:55;1010.08;;;32.92;56.78
37170;BME280;23062;13.952;100.608;2023-04-28T04:45:20;1010.09;;;32.96;56.31
37170;BME280;23062;13.952;100.608;2023-04-28T04:49:47;1009.94;;;32.99;55.97
37170;BME280;23062;13.952;100.608;2023-04-28T04:54:13;1009.82;;;32.98;56.10
37170;BME280;23062;13.952;100.608;2023-04-28T04:58:39;1009.75;;;33.01;55.54
37170;BME280;23062;13.952;100.608;2023-04-28T05:03:05;1009.70;;;33.06;54.94
37170;BME280;23062;13.952;100.608;2023-04-28T05:07:34;1009.66;;;33.12;54.52
37170;BME280;23062;13.952;100.608;2023-04-28T05:12:00;1009.52;;;33.16;54.28
37170;BME280;23062;13.952;100.608;2023-04-28T05:16:26;1009.45;;;33.19;53.99
37170;BME280;23062;13.952;100.608;2023-04-28T05:20:51;1009.39;;;33.19;53.81
37170;BME280;23062;13.952;100.608;2023-04-28T05:25:18;1009.15;;;33.14;54.18
37170;BME280;23062;13.952;100.608;2023-04-28T05:29:47;1009.05;;;33.15;53.96
37170;BME280;23062;13.952;100.608;2023-04-28T05:34:13;1008.94;;;33.13;54.17
37170;BME280;23062;13.952;100.608;2023-04-28T05:38:39;1008.87;;;33.11;53.99
37170;BME280;23062;13.952;100.608;2023-04-28T05:43:05;1008.77;;;33.13;54.14
37170;BME280;23062;13.952;100.608;2023-04-28T05:47:31;1008.66;;;33.11;54.53
37170;BME280;23062;13.952;100.608;2023-04-28T05:52:03;1008.60;;;33.10;54.97
37170;BME280;23062;13.952;100.608;2023-04-28T05:56:30;1008.55;;;33.08;54.58
37170;BME280;23062;13.952;100.608;2023-04-28T06:01:05;1008.60;;;33.10;55.22
37170;BME280;23062;13.952;100.608;2023-04-28T06:05:31;1008.49;;;33.09;56.66
37170;BME280;23062;13.952;100.608;2023-04-28T06:09:57;1008.40;;;33.06;57.42
37170;BME280;23062;13.952;100.608;2023-04-28T06:14:24;1008.47;;;33.05;57.88
37170;BME280;23062;13.952;100.608;2023-04-28T06:18:56;1008.53;;;33.00;62.12
37170;BME280;23062;13.952;100.608;2023-04-28T06:23:23;1008.40;;;32.77;64.25
37170;BME280;23062;13.952;100.608;2023-04-28T06:27:49;1008.04;;;32.55;62.47
37170;BME280;23062;13.952;100.608;2023-04-28T06:32:16;1007.79;;;32.47;61.70
37170;BME280;23062;13.952;100.608;2023-04-28T06:36:42;1007.81;;;32.52;61.92
37170;BME280;23062;13.952;100.608;2023-04-28T06:41:13;1007.64;;;32.49;62.94
37170;BME280;23062;13.952;100.608;2023-04-28T06:45:40;1007.35;;;32.51;63.87
37170;BME280;23062;13.952;100.608;2023-04-28T06:50:06;1007.42;;;32.47;64.38
37170;BME280;23062;13.952;100.608;2023-04-28T06:54:33;1007.46;;;32.50;64.03
37170;BME280;23062;13.952;100.608;2023-04-28T06:59:05;1007.53;;;32.50;64.42
37170;BME280;23062;13.952;100.608;2023-04-28T07:03:31;1007.41;;;32.54;64.01
37170;BME280;23062;13.952;100.608;2023-04-28T07:07:57;1007.27;;;32.54;63.91
37170;BME280;23062;13.952;100.608;2023-04-28T07:12:23;1007.19;;;32.54;64.00
37170;BME280;23062;13.952;100.608;2023-04-28T07:16:49;1007.23;;;32.57;63.09
37170;BME280;23062;13.952;100.608;2023-04-28T07:21:15;1007.25;;;32.60;62.33
37170;BME280;23062;13.952;100.608;2023-04-28T07:25:41;1007.01;;;32.64;61.08
37170;BME280;23062;13.952;100.608;2023-04-28T07:35:29;1007.00;;;32.72;60.76
37170;BME280;23062;13.952;100.608;2023-04-28T07:39:55;1006.96;;;32.67;60.45
37170;BME280;23062;13.952;100.608;2023-04-28T07:44:21;1006.79;;;32.61;59.60
37170;BME280;23062;13.952;100.608;2023-04-28T07:48:46;1006.88;;;32.55;58.93
37170;BME280;23062;13.952;100.608;2023-04-28T07:57:43;1006.97;;;32.50;59.04
37170;BME280;23062;13.952;100.608;2023-04-28T08:02:13;1006.65;;;32.44;59.18
37170;BME280;23062;13.952;100.608;2023-04-28T08:06:41;1006.39;;;32.40;59.01
37170;BME280;23062;13.952;100.608;2023-04-28T08:11:09;1006.33;;;32.43;58.46
37170;BME280;23062;13.952;100.608;2023-04-28T08:15:35;1006.33;;;32.42;57.64
37170;BME280;23062;13.952;100.608;2023-04-28T08:20:04;1006.26;;;32.41;57.73
37170;BME280;23062;13.952;100.608;2023-04-28T08:24:32;1006.39;;;32.43;57.76
37170;BME280;23062;13.952;100.608;2023-04-28T08:29:01;1006.40;;;32.43;57.18
37170;BME280;23062;13.952;100.608;2023-04-28T08:33:27;1006.17;;;32.46;56.78
37170;BME280;23062;13.952;100.608;2023-04-28T08:37:57;1006.00;;;32.47;56.95
37170;BME280;23062;13.952;100.608;2023-04-28T08:42:36;1005.83;;;32.52;56.84
37170;BME280;23062;13.952;100.608;2023-04-28T08:47:01;1005.75;;;32.56;56.53
37170;BME280;23062;13.952;100.608;2023-04-28T08:51:36;1005.68;;;32.56;56.34
37170;BME280;23062;13.952;100.608;2023-04-28T08:56:01;1005.68;;;32.62;55.17
37170;BME280;23062;13.952;100.608;2023-04-28T09:00:33;1005.74;;;32.65;55.10
37170;BME280;23062;13.952;100.608;2023-04-28T09:04:58;1005.74;;;32.69;54.86
37170;BME280;23062;13.952;100.608;2023-04-28T09:09:26;1005.71;;;32.73;54.52
37170;BME280;23062;13.952;100.608;2023-04-28T09:14:10;1005.64;;;32.77;54.42
37170;BME280;23062;13.952;100.608;2023-04-28T09:18:27;1005.66;;;32.77;54.00
37170;BME280;23062;13.952;100.608;2023-04-28T09:27:29;1005.52;;;32.83;54.73
37170;BME280;23062;13.952;100.608;2023-04-28T09:32:20;1005.40;;;32.83;55.16
37170;BME280;23062;13.952;100.608;2023-04-28T09:36:47;1005.36;;;32.84;55.57
37170;BME280;23062;13.952;100.608;2023-04-28T09:41:13;1005.41;;;32.87;56.30
37170;BME280;23062;13.952;100.608;2023-04-28T09:45:39;1005.33;;;32.89;56.37
37170;BME280;23062;13.952;100.608;2023-04-28T09:50:08;1005.33;;;32.89;56.43
37170;BME280;23062;13.952;100.608;2023-04-28T09:54:39;1005.47;;;32.92;56.43
37170;BME280;23062;13.952;100.608;2023-04-28T09:59:06;1005.61;;;32.96;56.35
37170;BME280;23062;13.952;100.608;2023-04-28T10:03:32;1005.74;;;32.98;56.34
37170;BME280;23062;13.952;100.608;2023-04-28T10:08:01;1005.79;;;32.96;56.45
37170;BME280;23062;13.952;100.608;2023-04-28T10:12:30;1005.70;;;32.97;56.38
37170;BME280;23062;13.952;100.608;2023-04-28T10:17:14;1005.58;;;32.98;56.36
37170;BME280;23062;13.952;100.608;2023-04-28T10:21:45;1005.46;;;33.00;56.21
37170;BME280;23062;13.952;100.608;2023-04-28T10:26:14;1005.43;;;32.98;56.45
37170;BME280;23062;13.952;100.608;2023-04-28T10:30:42;1005.55;;;32.99;56.67
37170;BME280;23062;13.952;100.608;2023-04-28T10:44:50;1005.85;;;32.97;56.46
37170;BME280;23062;13.952;100.608;2023-04-28T10:49:20;1005.86;;;32.96;56.39
37170;BME280;23062;13.952;100.608;2023-04-28T11:02:53;1006.08;;;32.97;56.12
37170;BME280;23062;13.952;100.608;2023-04-28T11:07:22;1006.28;;;32.97;56.41
37170;BME280;23062;13.952;100.608;2023-04-28T11:12:05;1006.38;;;32.97;56.19
37170;BME280;23062;13.952;100.608;2023-04-28T11:16:29;1006.46;;;32.95;56.28
37170;BME280;23062;13.952;100.608;2023-04-28T11:20:57;1006.60;;;32.92;56.41
37170;BME280;23062;13.952;100.608;2023-04-28T11:25:23;1006.50;;;32.91;56.38
37170;BME280;23062;13.952;100.608;2023-04-28T11:29:53;1006.46;;;32.90;56.57
37170;BME280;23062;13.952;100.608;2023-04-28T11:34:22;1006.48;;;32.92;56.61
37170;BME280;23062;13.952;100.608;2023-04-28T11:38:49;1006.55;;;32.90;56.79
37170;BME280;23062;13.952;100.608;2023-04-28T11:43:29;1006.46;;;32.90;56.88
37170;BME280;23062;13.952;100.608;2023-04-28T11:47:58;1006.37;;;32.88;57.13
37170;BME280;23062;13.952;100.608;2023-04-28T11:52:29;1006.33;;;32.90;57.28
37170;BME280;23062;13.952;100.608;2023-04-28T11:57:00;1006.36;;;32.87;57.53
37170;BME280;23062;13.952;100.608;2023-04-28T12:01:30;1006.36;;;32.87;57.65
37170;BME280;23062;13.952;100.608;2023-04-28T12:05:57;1006.31;;;32.87;57.77
37170;BME280;23062;13.952;100.608;2023-04-28T12:10:27;1006.35;;;32.88;57.93
37170;BME280;23062;13.952;100.608;2023-04-28T12:15:05;1006.40;;;32.86;58.08
37170;BME280;23062;13.952;100.608;2023-04-28T12:19:43;1006.51;;;32.85;58.06
37170;BME280;23062;13.952;100.608;2023-04-28T12:24:20;1006.57;;;32.87;57.91
37170;BME280;23062;13.952;100.608;2023-04-28T12:28:54;1006.78;;;32.85;57.91
37170;BME280;23062;13.952;100.608;2023-04-28T12:33:29;1006.99;;;32.82;58.05
37170;BME280;23062;13.952;100.608;2023-04-28T12:37:57;1007.09;;;32.84;57.81
37170;BME280;23062;13.952;100.608;2023-04-28T12:42:25;1007.14;;;32.84;57.81
37170;BME280;23062;13.952;100.608;2023-04-28T12:46:57;1007.31;;;32.84;57.41
37170;BME280;23062;13.952;100.608;2023-04-28T12:51:21;1007.64;;;32.82;57.30
37170;BME280;23062;13.952;100.608;2023-04-28T12:55:55;1007.66;;;32.80;57.35
37170;BME280;23062;13.952;100.608;2023-04-28T13:00:23;1007.65;;;32.81;57.13
37170;BME280;23062;13.952;100.608;2023-04-28T13:04:54;1007.70;;;32.81;56.97
37170;BME280;23062;13.952;100.608;2023-04-28T13:09:21;1007.75;;;32.79;56.89
37170;BME280;23062;13.952;100.608;2023-04-28T13:13:47;1007.94;;;32.79;56.67
37170;BME280;23062;13.952;100.608;2023-04-28T13:18:13;1008.13;;;32.79;56.92
37170;BME280;23062;13.952;100.608;2023-04-28T13:22:39;1008.20;;;32.77;57.29
37170;BME280;23062;13.952;100.608;2023-04-28T13:27:13;1008.29;;;32.73;57.54
37170;BME280;23062;13.952;100.608;2023-04-28T13:31:39;1008.28;;;32.77;57.57
37170;BME280;23062;13.952;100.608;2023-04-28T13:36:05;1008.30;;;32.78;57.83
37170;BME280;23062;13.952;100.608;2023-04-28T13:40:33;1008.30;;;32.76;58.17
37170;BME280;23062;13.952;100.608;2023-04-28T13:45:01;1008.33;;;32.73;58.46
37170;BME280;23062;13.952;100.608;2023-04-28T13:49:27;1008.44;;;32.71;58.81
37170;BME280;23062;13.952;100.608;2023-04-28T13:53:56;1008.44;;;32.72;59.19
37170;BME280;23062;13.952;100.608;2023-04-28T13:58:29;1008.45;;;32.73;59.60
37170;BME280;23062;13.952;100.608;2023-04-28T14:02:59;1008.52;;;32.71;59.99
37170;BME280;23062;13.952;100.608;2023-04-28T14:09:45;1008.57;;;32.80;60.28
37170;BME280;23062;13.952;100.608;2023-04-28T14:14:11;1008.53;;;32.76;60.72
37170;BME280;23062;13.952;100.608;2023-04-28T14:18:37;1008.55;;;32.72;61.24
37170;BME280;23062;13.952;100.608;2023-04-28T14:23:04;1008.56;;;32.73;61.31
37170;BME280;23062;13.952;100.608;2023-04-28T14:27:30;1008.62;;;32.73;61.49
37170;BME280;23062;13.952;100.608;2023-04-28T14:31:56;1008.61;;;32.70;61.78
37170;BME280;23062;13.952;100.608;2023-04-28T14:36:23;1008.73;;;32.71;61.87
37170;BME280;23062;13.952;100.608;2023-04-28T14:40:50;1008.90;;;32.71;62.12
37170;BME280;23062;13.952;100.608;2023-04-28T14:45:17;1008.97;;;32.68;62.28
37170;BME280;23062;13.952;100.608;2023-04-28T14:49:44;1009.07;;;32.70;62.52
37170;BME280;23062;13.952;100.608;2023-04-28T14:54:11;1009.24;;;32.71;62.60
37170;BME280;23062;13.952;100.608;2023-04-28T14:58:39;1009.21;;;32.70;62.71
37170;BME280;23062;13.952;100.608;2023-04-28T15:03:10;1009.22;;;32.84;62.13
37170;BME280;23062;13.952;100.608;2023-04-28T15:07:33;1009.30;;;32.97;61.31
37170;BME280;23062;13.952;100.608;2023-04-28T15:11:59;1009.33;;;33.04;61.61
37170;BME280;23062;13.952;100.608;2023-04-28T15:16:26;1009.39;;;33.07;61.63
37170;BME280;23062;13.952;100.608;2023-04-28T15:20:53;1009.39;;;33.06;61.44
37170;BME280;23062;13.952;100.608;2023-04-28T15:25:19;1009.33;;;33.09;61.33
37170;BME280;23062;13.952;100.608;2023-04-28T15:29:51;1009.32;;;33.09;61.36
37170;BME280;23062;13.952;100.608;2023-04-28T15:34:23;1009.32;;;33.09;61.33
37170;BME280;23062;13.952;100.608;2023-04-28T15:38:47;1009.31;;;33.08;61.27
37170;BME280;23062;13.952;100.608;2023-04-28T15:43:17;1009.25;;;33.09;61.36
37170;BME280;23062;13.952;100.608;2023-04-28T15:47:44;1009.24;;;33.09;61.43
37170;BME280;23062;13.952;100.608;2023-04-28T15:52:11;1009.30;;;33.09;61.17
37170;BME280;23062;13.952;100.608;2023-04-28T15:56:39;1009.38;;;33.10;61.30
37170;BME280;23062;13.952;100.608;2023-04-28T16:01:04;1009.35;;;33.09;61.27
37170;BME280;23062;13.952;100.608;2023-04-28T16:05:31;1009.25;;;33.08;61.19
37170;BME280;23062;13.952;100.608;2023-04-28T16:09:58;1009.16;;;33.02;61.58
37170;BME280;23062;13.952;100.608;2023-04-28T16:14:25;1009.11;;;33.05;61.35
37170;BME280;23062;13.952;100.608;2023-04-28T16:18:53;1009.05;;;33.08;61.58
37170;BME280;23062;13.952;100.608;2023-04-28T16:23:20;1009.07;;;33.08;61.87
37170;BME280;23062;13.952;100.608;2023-04-28T16:27:47;1008.98;;;33.08;61.79
37170;BME280;23062;13.952;100.608;2023-04-28T16:32:13;1008.89;;;33.08;61.58
37170;BME280;23062;13.952;100.608;2023-04-28T16:36:43;1008.89;;;33.03;61.41
37170;BME280;23062;13.952;100.608;2023-04-28T16:41:09;1008.77;;;32.99;61.46
37170;BME280;23062;13.952;100.608;2023-04-28T16:45:35;1008.73;;;32.94;61.55
37170;BME280;23062;13.952;100.608;2023-04-28T16:50:04;1008.64;;;33.02;61.27
37170;BME280;23062;13.952;100.608;2023-04-28T16:54:36;1008.56;;;32.96;61.41
37170;BME280;23062;13.952;100.608;2023-04-28T16:59:02;1008.49;;;32.97;61.33
37170;BME280;23062;13.952;100.608;2023-04-28T17:03:33;1008.49;;;32.98;61.33
37170;BME280;23062;13.952;100.608;2023-04-28T17:08:05;1008.44;;;32.98;61.14
37170;BME280;23062;13.952;100.608;2023-04-28T17:12:28;1008.47;;;32.98;61.22
37170;BME280;23062;13.952;100.608;2023-04-28T17:16:55;1008.35;;;32.98;61.31
37170;BME280;23062;13.952;100.608;2023-04-28T17:21:21;1008.31;;;33.03;61.70
37170;BME280;23062;13.952;100.608;2023-04-28T17:25:47;1008.19;;;32.95;61.38
37170;BME280;23062;13.952;100.608;2023-04-28T17:30:13;1008.25;;;32.99;61.12
37170;BME280;23062;13.952;100.608;2023-04-28T17:34:45;1008.26;;;33.01;61.19
37170;BME280;23062;13.952;100.608;2023-04-28T17:39:11;1008.18;;;32.94;61.26
37170;BME280;23062;13.952;100.608;2023-04-28T17:43:37;1008.11;;;32.91;61.30
37170;BME280;23062;13.952;100.608;2023-04-28T17:48:09;1008.07;;;32.93;61.23
37170;BME280;23062;13.952;100.608;2023-04-28T17:52:36;1007.94;;;32.94;61.29
37170;BME280;23062;13.952;100.608;2023-04-28T17:57:02;1007.94;;;32.96;61.07
37170;BME280;23062;13.952;100.608;2023-04-28T18:01:31;1007.95;;;32.98;61.01
37170;BME280;23062;13.952;100.608;2023-04-28T18:05:59;1007.82;;;32.93;61.13
37170;BME280;23062;13.952;100.608;2023-04-28T18:10:26;1007.74;;;32.91;61.18
37170;BME280;23062;13.952;100.608;2023-04-28T18:14:53;1007.70;;;32.92;61.12
37170;BME280;23062;13.952;100.608;2023-04-28T18:19:19;1007.54;;;32.90;61.14
37170;BME280;23062;13.952;100.608;2023-04-28T18:23:45;1007.46;;;32.95;61.02
37170;BME280;23062;13.952;100.608;2023-04-28T18:28:11;1007.39;;;32.88;61.30
37170;BME280;23062;13.952;100.608;2023-04-28T18:32:42;1007.44;;;32.89;61.20
37170;BME280;23062;13.952;100.608;2023-04-28T18:37:06;1007.51;;;32.86;61.29
37170;BME280;23062;13.952;100.608;2023-04-28T18:41:33;1007.58;;;32.86;61.37
37170;BME280;23062;13.952;100.608;2023-04-28T18:45:59;1007.57;;;32.90;61.17
37170;BME280;23062;13.952;100.608;2023-04-28T18:50:32;1007.56;;;32.86;61.32
37170;BME280;23062;13.952;100.608;2023-04-28T18:54:55;1007.54;;;32.87;61.25
37170;BME280;23062;13.952;100.608;2023-04-28T18:59:21;1007.50;;;32.90;61.18
37170;BME280;23062;13.952;100.608;2023-04-28T19:03:55;1007.41;;;32.91;61.17
37170;BME280;23062;13.952;100.608;2023-04-28T19:08:22;1007.44;;;32.89;61.16
37170;BME280;23062;13.952;100.608;2023-04-28T19:12:55;1007.33;;;32.93;61.09
37170;BME280;23062;13.952;100.608;2023-04-28T19:17:20;1007.28;;;32.90;61.19
37170;BME280;23062;13.952;100.608;2023-04-28T19:21:48;1007.25;;;32.88;61.18
37170;BME280;23062;13.952;100.608;2023-04-28T19:26:15;1007.22;;;32.94;61.11
37170;BME280;23062;13.952;100.608;2023-04-28T19:30:43;1007.16;;;32.94;61.04
37170;BME280;23062;13.952;100.608;2023-04-28T19:35:09;1007.12;;;32.95;61.05
37170;BME280;23062;13.952;100.608;2023-04-28T19:39:35;1007.03;;;32.95;61.11
37170;BME280;23062;13.952;100.608;2023-04-28T19:44:02;1006.98;;;32.93;61.08
37170;BME280;23062;13.952;100.608;2023-04-28T19:48:32;1006.97;;;32.92;61.13
37170;BME280;23062;13.952;100.608;2023-04-28T19:53:00;1006.95;;;32.91;61.13
37170;BME280;23062;13.952;100.608;2023-04-28T19:57:27;1006.95;;;32.92;61.17
37170;BME280;23062;13.952;100.608;2023-04-28T20:01:53;1007.00;;;32.88;61.28
37170;BME280;23062;13.952;100.608;2023-04-28T20:06:21;1006.97;;;32.90;61.20
37170;BME280;23062;13.952;100.608;2023-04-28T20:10:47;1006.91;;;32.90;61.30
37170;BME280;23062;13.952;100.608;2023-04-28T20:15:13;1006.91;;;32.89;61.30
37170;BME280;23062;13.952;100.608;2023-04-28T20:19:43;1006.94;;;32.87;61.41
37170;BME280;23062;13.952;100.608;2023-04-28T20:24:09;1006.98;;;32.89;61.39
37170;BME280;23062;13.952;100.608;2023-04-28T20:28:35;1006.95;;;32.87;61.26
37170;BME280;23062;13.952;100.608;2023-04-28T20:33:01;1007.09;;;32.85;61.09
37170;BME280;23062;13.952;100.608;2023-04-28T20:37:26;1007.04;;;32.88;61.16
37170;BME280;23062;13.952;100.608;2023-04-28T20:41:53;1006.96;;;32.87;61.17
37170;BME280;23062;13.952;100.608;2023-04-28T20:46:18;1007.03;;;32.86;61.18
37170;BME280;23062;13.952;100.608;2023-04-28T20:50:45;1007.04;;;32.84;61.17
37170;BME280;23062;13.952;100.608;2023-04-28T20:55:18;1007.05;;;32.84;61.21
37170;BME280;23062;13.952;100.608;2023-04-28T20:59:46;1007.05;;;32.85;61.27
37170;BME280;23062;13.952;100.608;2023-04-28T21:04:13;1007.13;;;32.85;61.28
37170;BME280;23062;13.952;100.608;2023-04-28T21:08:41;1007.11;;;32.85;61.21
37170;BME280;23062;13.952;100.608;2023-04-28T21:13:07;1007.10;;;32.81;61.29
37170;BME280;23062;13.952;100.608;2023-04-28T21:17:33;1007.17;;;32.83;61.34
37170;BME280;23062;13.952;100.608;2023-04-28T21:22:05;1007.17;;;32.83;61.38
37170;BME280;23062;13.952;100.608;2023-04-28T21:26:32;1007.23;;;32.83;61.40
37170;BME280;23062;13.952;100.608;2023-04-28T21:30:59;1007.14;;;32.79;61.38
37170;BME280;23062;13.952;100.608;2023-04-28T21:35:28;1007.13;;;32.79;61.71
37170;BME280;23062;13.952;100.608;2023-04-28T21:39:58;1007.28;;;32.79;62.07
37170;BME280;23062;13.952;100.608;2023-04-28T21:46:30;1007.37;;;32.85;62.44
37170;BME280;23062;13.952;100.608;2023-04-28T21:50:57;1007.50;;;32.81;62.48
37170;BME280;23062;13.952;100.608;2023-04-28T21:55:26;1007.55;;;32.78;63.22
37170;BME280;23062;13.952;100.608;2023-04-28T21:59:52;1007.63;;;32.67;63.79
37170;BME280;23062;13.952;100.608;2023-04-28T22:04:18;1007.68;;;32.46;65.13
37170;BME280;23062;13.952;100.608;2023-04-28T22:08:47;1007.69;;;32.35;65.77
37170;BME280;23062;13.952;100.608;2023-04-28T22:13:14;1007.68;;;32.29;66.26
37170;BME280;23062;13.952;100.608;2023-04-28T22:17:41;1007.73;;;32.24;66.61
37170;BME280;23062;13.952;100.608;2023-04-28T22:22:17;1007.81;;;32.25;66.52
37170;BME280;23062;13.952;100.608;2023-04-28T22:26:43;1007.85;;;32.19;66.73
37170;BME280;23062;13.952;100.608;2023-04-28T22:31:09;1007.88;;;32.16;66.99
37170;BME280;23062;13.952;100.608;2023-04-28T22:35:36;1007.91;;;32.10;66.94
37170;BME280;23062;13.952;100.608;2023-04-28T22:40:07;1007.91;;;32.01;67.88
37170;BME280;23062;13.952;100.608;2023-04-28T22:44:35;1007.96;;;32.05;67.92
37170;BME280;23062;13.952;100.608;2023-04-28T22:49:01;1007.96;;;31.93;68.40
37170;BME280;23062;13.952;100.608;2023-04-28T22:53:28;1007.96;;;31.92;68.16
37170;BME280;23062;13.952;100.608;2023-04-28T22:57:57;1008.03;;;31.86;68.21
37170;BME280;23062;13.952;100.608;2023-04-28T23:02:23;1008.11;;;31.82;68.33
37170;BME280;23062;13.952;100.608;2023-04-28T23:06:50;1008.23;;;31.81;68.68
37170;BME280;23062;13.952;100.608;2023-04-28T23:11:17;1008.43;;;31.82;68.69
37170;BME280;23062;13.952;100.608;2023-04-28T23:15:45;1008.43;;;31.80;68.69
37170;BME280;23062;13.952;100.608;2023-04-28T23:20:12;1008.43;;;31.81;68.75
37170;BME280;23062;13.952;100.608;2023-04-28T23:24:44;1008.54;;;31.75;68.76
37170;BME280;23062;13.952;100.608;2023-04-28T23:29:13;1008.62;;;31.75;68.79
37170;BME280;23062;13.952;100.608;2023-04-28T23:33:45;1008.74;;;31.76;68.90
37170;BME280;23062;13.952;100.608;2023-04-28T23:38:18;1008.82;;;31.78;68.68
37170;BME280;23062;13.952;100.608;2023-04-28T23:42:45;1008.98;;;31.78;68.76
37170;BME280;23062;13.952;100.608;2023-04-28T23:47:12;1009.08;;;31.77;68.82
37170;BME280;23062;13.952;100.608;2023-04-28T23:51:44;1009.16;;;31.83;68.69
37170;BME280;23062;13.952;100.608;2023-04-28T23:56:07;1009.17;;;31.79;68.85
